Time;durP1;ratioP1;P1;durP2;ratioP2;P2;SDS_P1;SDS_P2;PMS_P1;PMS_P2;Temp;Humidity;BMP_temperature;BMP_pressure;BME280_temperature;BME280_humidity;BME280_pressure;Samples;Min_cycle;Max_cycle;Signal;HPM_P1;HPM_P2
2023/02/18 00:00:35;;;;;;;;;;;;;;;;;;4996710;28;19914;-69
2023/02/18 00:03:01;;;;;;;;;;;;;;;;;;4997495;28;19913;-70
2023/02/18 00:05:27;;;;;;;;;;;;;;;;;;4996489;28;19913;-71
2023/02/18 00:07:53;;;;;;;;;;;;;;;;;;4992952;28;21031;-70
2023/02/18 00:10:19;;;;;;;;;;;;;;;;;;4992961;28;20271;-70
2023/02/18 00:12:45;;;;;;;;;;;;;;;;;;4940721;28;1443993;-70
2023/02/18 00:15:11;;;;;;;;;;;;;;;;;;4989941;28;20378;-70
2023/02/18 00:17:37;;;;;;;;;;;;;;;;;;4995259;28;19955;-70
2023/02/18 00:20:03;;;;;;;;;;;;;;;;;;4977372;28;19913;-70
2023/02/18 00:22:29;;;;;;;;;;;;;;;;;;4990937;28;19941;-69
2023/02/18 00:24:55;;;;;;;;;;;;;;;;;;4998993;28;19913;-70
2023/02/18 00:27:21;;;;;;;;;;;;;;;;;;4989538;28;20446;-69
2023/02/18 00:29:47;;;;;;;;;;;;;;;;;;4976280;28;20411;-69
2023/02/18 00:32:13;;;;;;;;;;;;;;;;;;4993509;28;19939;-70
2023/02/18 00:34:39;;;;;;;;;;;;;;;;;;4974737;28;19913;-71
2023/02/18 00:37:05;;;;;;;;;;;;;;;;;;4990823;28;19921;-69
2023/02/18 00:39:31;;;;;;;;;;;;;;;;;;4993876;28;19913;-71
2023/02/18 00:41:57;;;;;;;;;;;;;;;;;;4993940;28;19920;-69
2023/02/18 00:44:23;;;;;;;;;;;;;;;;;;4993539;28;20039;-69
2023/02/18 00:46:49;;;;;;;;;;;;;;;;;;4995948;28;19927;-69
2023/02/18 00:49:15;;;;;;;;;;;;;;;;;;4985154;28;19920;-70
2023/02/18 00:51:41;;;;;;;;;;;;;;;;;;4993113;28;20500;-70
2023/02/18 00:54:07;;;;;;;;;;;;;;;;;;4991370;28;19931;-69
2023/02/18 00:56:33;;;;;;;;;;;;;;;;;;4979569;28;20322;-70
2023/02/18 00:58:59;;;;;;;;;;;;;;;;;;4972528;28;20322;-69
2023/02/18 01:01:25;;;;;;;;;;;;;;;;;;4973650;28;19913;-69
2023/02/18 01:03:51;;;;;;;;;;;;;;;;;;4978573;28;19913;-69
2023/02/18 01:06:17;;;;;;;;;;;;;;;;;;4991197;28;20218;-70
2023/02/18 01:08:43;;;;;;;;;;;;;;;;;;4997169;28;19917;-69
2023/02/18 01:11:08;;;;;;;;;;;;;;;;;;4992057;28;19913;-69
2023/02/18 01:13:34;;;;;;;;;;;;;;;;;;4978679;28;19928;-70
2023/02/18 01:16:00;;;;;;;;;;;;;;;;;;4992530;28;20473;-70
2023/02/18 01:18:26;;;;;;;;;;;;;;;;;;4991637;28;19917;-70
2023/02/18 01:20:52;;;;;;;;;;;;;;;;;;4996168;28;20328;-70
2023/02/18 01:23:18;;;;;;;;;;;;;;;;;;4989375;28;20019;-69
2023/02/18 01:25:44;;;;;;;;;;;;;;;;;;4992282;28;20647;-69
2023/02/18 01:28:10;;;;;;;;;;;;;;;;;;4991046;28;20027;-70
2023/02/18 01:30:36;;;;;;;;;;;;;;;;;;4992654;28;19913;-70
2023/02/18 01:33:02;;;;;;;;;;;;;;;;;;4973637;28;20508;-69
2023/02/18 01:35:28;;;;;;;;;;;;;;;;;;5001635;28;19913;-69
2023/02/18 01:37:54;;;;;;;;;;;;;;;;;;4998974;28;20228;-69
2023/02/18 01:40:20;;;;;;;;;;;;;;;;;;4979617;28;19917;-69
2023/02/18 01:42:46;;;;;;;;;;;;;;;;;;4999285;28;19965;-70
2023/02/18 01:45:12;;;;;;;;;;;;;;;;;;4972895;28;19928;-70
2023/02/18 01:47:38;;;;;;;;;;;;;;;;;;5000750;28;19909;-69
2023/02/18 01:50:04;;;;;;;;;;;;;;;;;;4993133;28;19921;-69
2023/02/18 01:52:31;;;;;;;;;;;;;;;;;;4995730;28;19913;-69
2023/02/18 01:54:57;;;;;;;;;;;;;;;;;;4998353;28;20013;-69
2023/02/18 01:57:23;;;;;;;;;;;;;;;;;;4992730;28;19918;-69
2023/02/18 01:59:49;;;;;;;;;;;;;;;;;;4978187;28;20083;-69
2023/02/18 02:02:15;;;;;;;;;;;;;;;;;;4993744;28;20209;-70
2023/02/18 02:04:41;;;;;;;;;;;;;;;;;;4998514;28;19932;-69
2023/02/18 02:07:07;;;;;;;;;;;;;;;;;;4993968;28;19913;-69
2023/02/18 02:09:33;;;;;;;;;;;;;;;;;;4990917;28;20412;-69
2023/02/18 02:11:59;;;;;;;;;;;;;;;;;;4981793;28;19944;-69
2023/02/18 02:14:25;;;;;;;;;;;;;;;;;;4992625;28;20580;-68
2023/02/18 02:16:51;;;;;;;;;;;;;;;;;;4998234;28;19929;-69
2023/02/18 02:19:17;;;;;;;;;;;;;;;;;;4992548;28;19913;-69
2023/02/18 02:21:43;;;;;;;;;;;;;;;;;;4993122;28;20354;-69
2023/02/18 02:24:09;;;;;;;;;;;;;;;;;;4992995;28;19913;-69
2023/02/18 02:26:35;;;;;;;;;;;;;;;;;;4978445;28;19952;-69
2023/02/18 02:29:03;;;;;;;;;;;;;;;;;;4999077;28;20480;-70
2023/02/18 02:31:29;;;;;;;;;;;;;;;;;;4996998;28;19910;-69
2023/02/18 02:33:55;;;;;;;;;;;;;;;;;;4996385;28;19967;-70
2023/02/18 02:36:21;;;;;;;;;;;;;;;;;;4993030;28;19936;-70
2023/02/18 02:38:47;;;;;;;;;;;;;;;;;;4976056;28;19917;-69
2023/02/18 02:41:13;;;;;;;;;;;;;;;;;;4978414;28;19914;-69
2023/02/18 02:43:39;;;;;;;;;;;;;;;;;;4994147;28;19968;-69
2023/02/18 02:46:05;;;;;;;;;;;;;;;;;;4979795;28;19998;-69
2023/02/18 02:48:31;;;;;;;;;;;;;;;;;;4996807;28;19913;-69
2023/02/18 02:50:57;;;;;;;;;;;;;;;;;;4978343;28;19913;-70
2023/02/18 02:53:23;;;;;;;;;;;;;;;;;;4974004;28;20656;-71
2023/02/18 02:55:49;;;;;;;;;;;;;;;;;;4995769;28;19920;-69
2023/02/18 02:58:15;;;;;;;;;;;;;;;;;;4993470;28;20315;-69
2023/02/18 03:00:41;;;;;;;;;;;;;;;;;;4995218;28;19920;-70
2023/02/18 03:03:07;;;;;;;;;;;;;;;;;;4974981;28;19913;-70
2023/02/18 03:05:33;;;;;;;;;;;;;;;;;;4995078;28;20467;-70
2023/02/18 03:07:59;;;;;;;;;;;;;;;;;;4999774;28;19917;-69
2023/02/18 03:10:25;;;;;;;;;;;;;;;;;;4992126;28;19919;-70
2023/02/18 03:12:50;;;;;;;;;;;;;;;;;;4993830;28;20620;-69
2023/02/18 03:15:16;;;;;;;;;;;;;;;;;;4973364;28;19956;-69
2023/02/18 03:17:42;;;;;;;;;;;;;;;;;;4995110;28;19924;-70
2023/02/18 03:20:08;;;;;;;;;;;;;;;;;;4989322;28;19917;-70
2023/02/18 03:22:34;;;;;;;;;;;;;;;;;;4994026;28;19964;-69
2023/02/18 03:25:00;;;;;;;;;;;;;;;;;;4990561;28;20610;-69
2023/02/18 03:27:26;;;;;;;;;;;;;;;;;;4976755;28;19940;-69
2023/02/18 03:29:52;;;;;;;;;;;;;;;;;;4998466;28;19920;-70
2023/02/18 03:32:18;;;;;;;;;;;;;;;;;;4991282;28;20530;-69
2023/02/18 03:34:44;;;;;;;;;;;;;;;;;;4993034;28;19913;-70
2023/02/18 03:37:10;;;;;;;;;;;;;;;;;;4989882;28;19918;-69
2023/02/18 03:39:36;;;;;;;;;;;;;;;;;;4995033;28;20019;-69
2023/02/18 03:42:02;;;;;;;;;;;;;;;;;;4993602;28;19913;-69
2023/02/18 03:44:28;;;;;;;;;;;;;;;;;;4990973;28;20405;-68
2023/02/18 03:46:54;;;;;;;;;;;;;;;;;;4979100;28;20032;-69
2023/02/18 03:49:20;;;;;;;;;;;;;;;;;;4988887;28;20301;-68
2023/02/18 03:51:46;;;;;;;;;;;;;;;;;;4996591;28;20523;-68
2023/02/18 03:54:13;;;;;;;;;;;;;;;;;;4994762;28;20339;-68
2023/02/18 03:56:39;;;;;;;;;;;;;;;;;;4973141;28;20011;-69
2023/02/18 03:59:05;;;;;;;;;;;;;;;;;;4993849;28;20336;-70
2023/02/18 04:01:31;;;;;;;;;;;;;;;;;;4972791;28;19917;-70
2023/02/18 04:03:57;;;;;;;;;;;;;;;;;;4997390;28;19913;-70
2023/02/18 04:06:23;;;;;;;;;;;;;;;;;;4988560;28;20370;-71
2023/02/18 04:08:49;;;;;;;;;;;;;;;;;;4991340;28;19913;-70
2023/02/18 04:11:15;;;;;;;;;;;;;;;;;;4994945;28;20294;-74
2023/02/18 04:13:41;;;;;;;;;;;;;;;;;;4997403;28;20334;-70
2023/02/18 04:16:07;;;;;;;;;;;;;;;;;;4992465;28;20002;-68
2023/02/18 04:18:32;;;;;;;;;;;;;;;;;;4998184;28;19968;-69
2023/02/18 04:20:58;;;;;;;;;;;;;;;;;;4993088;28;20613;-69
2023/02/18 04:23:25;;;;;;;;;;;;;;;;;;4992944;28;20506;-69
2023/02/18 04:25:51;;;;;;;;;;;;;;;;;;4995285;28;20372;-69
2023/02/18 04:28:17;;;;;;;;;;;;;;;;;;4991630;28;19917;-70
2023/02/18 04:30:43;;;;;;;;;;;;;;;;;;4994436;28;20282;-69
2023/02/18 04:33:09;;;;;;;;;;;;;;;;;;4990673;28;19945;-70
2023/02/18 04:35:35;;;;;;;;;;;;;;;;;;4979580;28;20426;-70
2023/02/18 04:38:01;;;;;;;;;;;;;;;;;;4994232;28;20028;-69
2023/02/18 04:40:29;;;;;;;;;;;;;;;;;;4993703;28;19990;-69
2023/02/18 04:42:55;;;;;;;;;;;;;;;;;;4975051;28;20542;-69
2023/02/18 04:45:21;;;;;;;;;;;;;;;;;;4989293;28;20571;-69
2023/02/18 04:47:47;;;;;;;;;;;;;;;;;;4997308;28;19998;-70
2023/02/18 04:50:13;;;;;;;;;;;;;;;;;;4993819;28;19970;-70
2023/02/18 04:52:39;;;;;;;;;;;;;;;;;;4997589;28;19919;-69
2023/02/18 04:55:05;;;;;;;;;;;;;;;;;;4995609;28;20381;-70
2023/02/18 04:57:31;;;;;;;;;;;;;;;;;;4998858;28;19971;-70
2023/02/18 04:59:57;;;;;;;;;;;;;;;;;;4993185;28;19921;-69
2023/02/18 05:02:23;;;;;;;;;;;;;;;;;;4974701;28;19917;-69
2023/02/18 05:04:49;;;;;;;;;;;;;;;;;;4992302;28;19913;-70
2023/02/18 05:07:14;;;;;;;;;;;;;;;;;;4975098;28;20012;-70
2023/02/18 05:09:40;;;;;;;;;;;;;;;;;;4997419;28;20293;-69
2023/02/18 05:12:06;;;;;;;;;;;;;;;;;;4992862;28;20275;-70
2023/02/18 05:14:32;;;;;;;;;;;;;;;;;;4974147;28;19933;-70
2023/02/18 05:16:58;;;;;;;;;;;;;;;;;;4981995;28;20313;-69
2023/02/18 05:19:24;;;;;;;;;;;;;;;;;;4980260;28;20025;-69
2023/02/18 05:21:50;;;;;;;;;;;;;;;;;;4997649;28;20548;-69
2023/02/18 05:24:16;;;;;;;;;;;;;;;;;;4977698;28;20003;-69
2023/02/18 05:26:42;;;;;;;;;;;;;;;;;;4998646;28;19923;-69
2023/02/18 05:29:08;;;;;;;;;;;;;;;;;;4996998;28;20676;-69
2023/02/18 05:31:34;;;;;;;;;;;;;;;;;;4977801;28;19920;-69
2023/02/18 05:34:00;;;;;;;;;;;;;;;;;;4985244;28;19913;-69
2023/02/18 05:36:26;;;;;;;;;;;;;;;;;;4995961;28;19913;-69
2023/02/18 05:38:52;;;;;;;;;;;;;;;;;;4982013;28;20028;-69
2023/02/18 05:41:18;;;;;;;;;;;;;;;;;;4999948;28;20251;-69
2023/02/18 05:46:29;;;;;;;;;;;;;;;;;;4998822;28;19995;-69
2023/02/18 05:48:55;;;;;;;;;;;;;;;;;;5002239;28;19917;-69
2023/02/18 05:51:21;;;;;;;;;;;;;;;;;;4994399;28;20327;-69
2023/02/18 05:53:47;;;;;;;;;;;;;;;;;;4982686;28;19913;-69
2023/02/18 05:56:12;;;;;;;;;;;;;;;;;;4974692;28;20398;-69
2023/02/18 05:58:38;;;;;;;;;;;;;;;;;;4994733;28;20096;-69
2023/02/18 06:01:04;;;;;;;;;;;;;;;;;;4973402;28;20210;-69
2023/02/18 06:03:30;;;;;;;;;;;;;;;;;;4998829;28;19913;-69
2023/02/18 06:05:56;;;;;;;;;;;;;;;;;;4994456;28;19917;-69
2023/02/18 06:08:22;;;;;;;;;;;;;;;;;;4993140;28;19917;-69
2023/02/18 06:10:48;;;;;;;;;;;;;;;;;;4994179;28;19917;-69
2023/02/18 06:13:14;;;;;;;;;;;;;;;;;;4973177;28;19987;-69
2023/02/18 06:15:40;;;;;;;;;;;;;;;;;;5000432;28;19928;-71
2023/02/18 06:18:06;;;;;;;;;;;;;;;;;;4999216;28;19947;-71
2023/02/18 06:20:32;;;;;;;;;;;;;;;;;;4994056;28;20405;-71
2023/02/18 06:22:58;;;;;;;;;;;;;;;;;;4997176;28;20168;-70
2023/02/18 06:25:24;;;;;;;;;;;;;;;;;;4997213;28;19909;-68
2023/02/18 06:27:50;;;;;;;;;;;;;;;;;;4993495;28;20172;-69
2023/02/18 06:30:16;;;;;;;;;;;;;;;;;;4993755;28;19909;-69
2023/02/18 06:32:42;;;;;;;;;;;;;;;;;;4996466;28;19921;-69
2023/02/18 06:35:08;;;;;;;;;;;;;;;;;;4990284;28;20370;-69
2023/02/18 06:37:34;;;;;;;;;;;;;;;;;;4994785;28;19952;-69
2023/02/18 06:40:00;;;;;;;;;;;;;;;;;;4998457;28;20011;-69
2023/02/18 06:42:26;;;;;;;;;;;;;;;;;;4997725;28;20224;-69
2023/02/18 06:44:52;;;;;;;;;;;;;;;;;;4978507;28;20465;-71
2023/02/18 06:47:18;;;;;;;;;;;;;;;;;;4991190;28;19992;-73
2023/02/18 06:49:44;;;;;;;;;;;;;;;;;;4976907;28;19913;-69
2023/02/18 06:52:10;;;;;;;;;;;;;;;;;;4975836;28;20462;-69
2023/02/18 06:54:36;;;;;;;;;;;;;;;;;;4995799;28;19913;-70
2023/02/18 06:57:01;;;;;;;;;;;;;;;;;;4996419;28;20177;-69
2023/02/18 06:59:27;;;;;;;;;;;;;;;;;;4997132;28;20345;-69
2023/02/18 07:01:53;;;;;;;;;;;;;;;;;;4973885;28;19980;-70
2023/02/18 07:04:19;;;;;;;;;;;;;;;;;;4972944;28;19951;-69
2023/02/18 07:06:45;;;;;;;;;;;;;;;;;;4995817;28;20375;-69
2023/02/18 07:09:11;;;;;;;;;;;;;;;;;;4990817;28;19913;-70
2023/02/18 07:11:37;;;;;;;;;;;;;;;;;;4976116;28;19909;-69
2023/02/18 07:14:03;;;;;;;;;;;;;;;;;;4978394;28;20013;-69
2023/02/18 07:16:29;;;;;;;;;;;;;;;;;;4978985;28;19917;-70
2023/02/18 07:18:55;;;;;;;;;;;;;;;;;;4978813;28;19924;-69
2023/02/18 07:21:21;;;;;;;;;;;;;;;;;;4972802;28;19912;-69
2023/02/18 07:23:47;;;;;;;;;;;;;;;;;;4979394;28;20520;-69
2023/02/18 07:26:13;;;;;;;;;;;;;;;;;;4992886;28;20410;-70
2023/02/18 07:28:39;;;;;;;;;;;;;;;;;;4977121;28;19913;-70
2023/02/18 07:31:05;;;;;;;;;;;;;;;;;;4977222;28;19920;-69
2023/02/18 07:33:31;;;;;;;;;;;;;;;;;;4980168;28;20351;-71
2023/02/18 07:35:57;;;;;;;;;;;;;;;;;;4997287;28;19967;-69
2023/02/18 07:38:23;;;;;;;;;;;;;;;;;;4978332;28;20018;-69
2023/02/18 07:40:49;;;;;;;;;;;;;;;;;;4979112;28;20367;-69
2023/02/18 07:43:15;;;;;;;;;;;;;;;;;;4993848;28;20012;-70
2023/02/18 07:45:41;;;;;;;;;;;;;;;;;;4974614;28;19921;-70
2023/02/18 07:48:07;;;;;;;;;;;;;;;;;;4992285;28;20315;-71
2023/02/18 07:50:35;;;;;;;;;;;;;;;;;;4995458;28;20229;-69
2023/02/18 07:53:02;;;;;;;;;;;;;;;;;;4995778;28;19920;-69
2023/02/18 07:55:47;;;;;;;;;;;;;;;;;;4974936;28;20266;-69
2023/02/18 07:58:13;;;;;;;;;;;;;;;;;;4990229;28;20527;-69
2023/02/18 08:00:39;;;;;;;;;;;;;;;;;;4998685;28;19917;-69
2023/02/18 08:03:05;;;;;;;;;;;;;;;;;;4993597;28;20002;-69
2023/02/18 08:05:31;;;;;;;;;;;;;;;;;;4981120;28;19924;-70
2023/02/18 08:07:57;;;;;;;;;;;;;;;;;;4974101;28;20143;-70
2023/02/18 08:10:23;;;;;;;;;;;;;;;;;;4990627;28;20341;-69
2023/02/18 08:12:49;;;;;;;;;;;;;;;;;;4995706;28;19924;-69
2023/02/18 08:15:15;;;;;;;;;;;;;;;;;;4989218;28;19927;-69
2023/02/18 08:17:41;;;;;;;;;;;;;;;;;;4993812;28;20221;-71
2023/02/18 08:20:07;;;;;;;;;;;;;;;;;;4993176;28;20020;-69
2023/02/18 08:22:33;;;;;;;;;;;;;;;;;;4996277;28;20108;-69
2023/02/18 08:24:59;;;;;;;;;;;;;;;;;;4996380;28;20464;-69
2023/02/18 08:27:25;;;;;;;;;;;;;;;;;;4995364;28;19920;-69
2023/02/18 08:29:51;;;;;;;;;;;;;;;;;;4995776;28;19913;-69
2023/02/18 08:32:17;;;;;;;;;;;;;;;;;;4992073;28;19979;-69
2023/02/18 08:34:43;;;;;;;;;;;;;;;;;;4992401;28;20398;-69
2023/02/18 08:37:09;;;;;;;;;;;;;;;;;;4975059;28;20287;-69
2023/02/18 08:39:35;;;;;;;;;;;;;;;;;;4978190;28;19931;-69
2023/02/18 08:42:01;;;;;;;;;;;;;;;;;;4969516;28;19909;-69
2023/02/18 08:44:27;;;;;;;;;;;;;;;;;;4992186;28;19913;-70
2023/02/18 08:46:53;;;;;;;;;;;;;;;;;;4996178;28;19919;-71
2023/02/18 08:49:23;;;;;;;;;;;;;;;;;;4988517;28;19913;-72
2023/02/18 08:51:48;;;;;;;;;;;;;;;;;;4996835;28;19944;-69
2023/02/18 08:54:14;;;;;;;;;;;;;;;;;;4994224;28;19913;-70
2023/02/18 08:56:40;;;;;;;;;;;;;;;;;;4979212;28;19939;-70
2023/02/18 08:59:06;;;;;;;;;;;;;;;;;;4971101;28;21418;-70
2023/02/18 09:01:32;;;;;;;;;;;;;;;;;;4996057;28;19953;-71
2023/02/18 09:03:58;;;;;;;;;;;;;;;;;;4993733;28;19913;-70
2023/02/18 09:06:24;;;;;;;;;;;;;;;;;;4979194;28;19963;-70
2023/02/18 09:08:50;;;;;;;;;;;;;;;;;;4994177;28;19913;-70
2023/02/18 09:11:16;;;;;;;;;;;;;;;;;;4990208;28;19913;-71
2023/02/18 09:13:42;;;;;;;;;;;;;;;;;;4996442;28;19920;-70
2023/02/18 09:16:08;;;;;;;;;;;;;;;;;;4974613;28;20098;-71
2023/02/18 09:18:34;;;;;;;;;;;;;;;;;;4994793;28;20316;-70
2023/02/18 09:21:00;;;;;;;;;;;;;;;;;;4983095;28;19940;-70
2023/02/18 09:23:26;;;;;;;;;;;;;;;;;;4994642;28;20466;-69
2023/02/18 09:25:52;;;;;;;;;;;;;;;;;;4996108;28;19913;-69
2023/02/18 09:28:18;;;;;;;;;;;;;;;;;;4976072;28;19991;-69
2023/02/18 09:30:44;;;;;;;;;;;;;;;;;;4980516;28;19913;-70
2023/02/18 09:33:10;;;;;;;;;;;;;;;;;;4994245;28;20012;-69
2023/02/18 09:35:36;;;;;;;;;;;;;;;;;;4996116;28;20603;-71
2023/02/18 09:38:02;;;;;;;;;;;;;;;;;;4994993;28;19916;-71
2023/02/18 09:40:28;;;;;;;;;;;;;;;;;;4992173;28;19920;-71
2023/02/18 09:42:54;;;;;;;;;;;;;;;;;;4990473;28;20509;-71
2023/02/18 09:45:20;;;;;;;;;;;;;;;;;;4975614;28;19917;-71
2023/02/18 09:47:46;;;;;;;;;;;;;;;;;;4997936;28;19913;-70
2023/02/18 09:50:12;;;;;;;;;;;;;;;;;;4994223;28;20014;-69
2023/02/18 09:52:38;;;;;;;;;;;;;;;;;;4997285;28;20100;-69
2023/02/18 09:55:04;;;;;;;;;;;;;;;;;;4998471;28;19913;-70
2023/02/18 09:57:30;;;;;;;;;;;;;;;;;;4979132;28;20006;-70
2023/02/18 09:59:56;;;;;;;;;;;;;;;;;;4999094;28;19959;-69
2023/02/18 10:02:22;;;;;;;;;;;;;;;;;;4995321;28;23497;-69
2023/02/18 10:04:51;;;;;;;;;;;;;;;;;;4980082;28;19913;-69
2023/02/18 10:07:17;;;;;;;;;;;;;;;;;;4994277;28;19988;-71
2023/02/18 10:09:43;;;;;;;;;;;;;;;;;;4999279;28;19921;-70
2023/02/18 10:12:08;;;;;;;;;;;;;;;;;;4977993;28;19995;-72
2023/02/18 10:14:35;;;;;;;;;;;;;;;;;;4997439;28;19929;-70
2023/02/18 10:17:01;;;;;;;;;;;;;;;;;;4996452;28;20710;-71
2023/02/18 10:19:26;;;;;;;;;;;;;;;;;;4977969;28;19918;-71
2023/02/18 10:21:52;;;;;;;;;;;;;;;;;;4978127;28;19946;-70
2023/02/18 10:24:18;;;;;;;;;;;;;;;;;;4999127;28;20359;-70
2023/02/18 10:26:44;;;;;;;;;;;;;;;;;;4998505;28;19956;-72
2023/02/18 10:29:10;;;;;;;;;;;;;;;;;;4995375;28;19920;-72
2023/02/18 10:31:36;;;;;;;;;;;;;;;;;;4998717;28;19913;-70
2023/02/18 10:34:02;;;;;;;;;;;;;;;;;;4994799;28;19921;-72
2023/02/18 10:36:28;;;;;;;;;;;;;;;;;;4995993;28;19917;-70
2023/02/18 10:38:54;;;;;;;;;;;;;;;;;;4974646;28;20318;-70
2023/02/18 10:41:20;;;;;;;;;;;;;;;;;;4996626;28;20559;-72
2023/02/18 10:43:46;;;;;;;;;;;;;;;;;;4977343;28;19909;-72
2023/02/18 10:46:12;;;;;;;;;;;;;;;;;;4993866;28;21185;-71
2023/02/18 10:48:38;;;;;;;;;;;;;;;;;;4994191;28;20252;-70
2023/02/18 10:51:04;;;;;;;;;;;;;;;;;;4989895;28;19919;-70
2023/02/18 10:53:30;;;;;;;;;;;;;;;;;;4981157;28;19916;-70
2023/02/18 10:55:59;;;;;;;;;;;;;;;;;;4980884;28;20453;-70
2023/02/18 10:58:25;;;;;;;;;;;;;;;;;;4993656;28;20437;-70
2023/02/18 11:00:51;;;;;;;;;;;;;;;;;;4994737;28;20011;-71
2023/02/18 11:03:17;;;;;;;;;;;;;;;;;;4993323;28;20347;-70
2023/02/18 11:05:43;;;;;;;;;;;;;;;;;;4976186;28;19917;-71
2023/02/18 11:08:09;;;;;;;;;;;;;;;;;;4990089;28;19913;-71
2023/02/18 11:10:35;;;;;;;;;;;;;;;;;;4974709;28;19924;-70
2023/02/18 11:13:02;;;;;;;;;;;;;;;;;;4993953;28;19925;-71
2023/02/18 11:15:28;;;;;;;;;;;;;;;;;;4993860;28;19921;-71
2023/02/18 11:17:54;;;;;;;;;;;;;;;;;;4975391;28;19948;-71
2023/02/18 11:20:20;;;;;;;;;;;;;;;;;;4994897;28;20064;-71
2023/02/18 11:22:46;;;;;;;;;;;;;;;;;;4974583;28;20426;-71
2023/02/18 11:25:12;;;;;;;;;;;;;;;;;;4975640;28;20399;-71
2023/02/18 11:27:38;;;;;;;;;;;;;;;;;;4995444;28;20007;-71
2023/02/18 11:30:04;;;;;;;;;;;;;;;;;;4993519;28;20462;-70
2023/02/18 11:32:30;;;;;;;;;;;;;;;;;;4976016;28;20311;-71
2023/02/18 11:34:56;;;;;;;;;;;;;;;;;;4994945;28;19917;-72
2023/02/18 11:37:22;;;;;;;;;;;;;;;;;;4993498;28;20325;-71
2023/02/18 11:39:48;;;;;;;;;;;;;;;;;;4979123;28;20004;-71
2023/02/18 11:42:14;;;;;;;;;;;;;;;;;;4979337;28;20233;-71
2023/02/18 11:44:40;;;;;;;;;;;;;;;;;;4975240;28;20339;-73
2023/02/18 11:47:06;;;;;;;;;;;;;;;;;;4992803;28;19953;-71
2023/02/18 11:49:35;;;;;;;;;;;;;;;;;;4994106;28;20485;-71
2023/02/18 11:52:02;;;;;;;;;;;;;;;;;;4980112;28;19913;-71
2023/02/18 11:54:29;;;;;;;;;;;;;;;;;;4970740;28;19957;-72
2023/02/18 11:56:55;;;;;;;;;;;;;;;;;;4993965;28;19913;-71
2023/02/18 11:59:21;;;;;;;;;;;;;;;;;;4974290;28;19917;-70
2023/02/18 12:01:47;;;;;;;;;;;;;;;;;;4975511;28;19912;-71
2023/02/18 12:04:13;;;;;;;;;;;;;;;;;;4988334;28;19940;-71
2023/02/18 12:06:39;;;;;;;;;;;;;;;;;;4999201;28;20407;-71
2023/02/18 12:09:05;;;;;;;;;;;;;;;;;;4974342;28;19913;-71
2023/02/18 12:11:31;;;;;;;;;;;;;;;;;;4974427;28;19991;-72
2023/02/18 12:13:57;;;;;;;;;;;;;;;;;;4990907;28;19924;-71
2023/02/18 12:16:23;;;;;;;;;;;;;;;;;;4995319;28;20332;-72
2023/02/18 12:18:49;;;;;;;;;;;;;;;;;;4995055;28;20350;-71
2023/02/18 12:21:16;;;;;;;;;;;;;;;;;;4990182;28;20394;-72
2023/02/18 12:23:42;;;;;;;;;;;;;;;;;;4978721;28;19995;-71
2023/02/18 12:26:08;;;;;;;;;;;;;;;;;;4993366;28;20363;-71
2023/02/18 12:28:34;;;;;;;;;;;;;;;;;;4991182;28;19921;-71
2023/02/18 12:31:00;;;;;;;;;;;;;;;;;;4994942;28;22111;-72
2023/02/18 12:33:26;;;;;;;;;;;;;;;;;;4974372;28;20374;-72
2023/02/18 12:35:52;;;;;;;;;;;;;;;;;;4995776;28;19923;-73
2023/02/18 12:38:18;;;;;;;;;;;;;;;;;;4974887;28;20394;-71
2023/02/18 12:40:44;;;;;;;;;;;;;;;;;;4978832;28;20426;-71
2023/02/18 12:43:10;;;;;;;;;;;;;;;;;;4990103;28;19913;-73
2023/02/18 12:45:36;;;;;;;;;;;;;;;;;;4991440;28;19917;-73
2023/02/18 12:48:02;;;;;;;;;;;;;;;;;;4996027;28;20441;-72
2023/02/18 12:50:28;;;;;;;;;;;;;;;;;;4979830;28;19913;-75
2023/02/18 12:52:54;;;;;;;;;;;;;;;;;;4995337;28;20423;-73
2023/02/18 12:55:20;;;;;;;;;;;;;;;;;;4992302;28;19948;-72
2023/02/18 12:57:46;;;;;;;;;;;;;;;;;;4993638;28;20520;-73
2023/02/18 13:00:13;;;;;;;;;;;;;;;;;;4988849;28;19912;-73
2023/02/18 13:02:39;;;;;;;;;;;;;;;;;;4992641;28;20233;-73
2023/02/18 13:05:05;;;;;;;;;;;;;;;;;;4991944;28;19940;-73
2023/02/18 13:07:31;;;;;;;;;;;;;;;;;;4994922;28;19921;-74
2023/02/18 13:09:57;;;;;;;;;;;;;;;;;;4997323;28;20316;-74
2023/02/18 13:12:23;;;;;;;;;;;;;;;;;;4995178;28;19914;-72
2023/02/18 13:14:49;;;;;;;;;;;;;;;;;;4995554;28;20365;-74
2023/02/18 13:17:14;;;;;;;;;;;;;;;;;;4974648;28;19952;-74
2023/02/18 13:19:41;;;;;;;;;;;;;;;;;;4998561;28;19913;-73
2023/02/18 13:22:07;;;;;;;;;;;;;;;;;;4973339;28;19920;-74
2023/02/18 13:24:33;;;;;;;;;;;;;;;;;;4995023;28;20239;-73
2023/02/18 13:26:59;;;;;;;;;;;;;;;;;;4973677;28;19956;-74
2023/02/18 13:29:25;;;;;;;;;;;;;;;;;;4992937;28;19948;-73
2023/02/18 13:31:51;;;;;;;;;;;;;;;;;;4977542;28;20166;-73
2023/02/18 13:34:17;;;;;;;;;;;;;;;;;;4995324;28;19924;-74
2023/02/18 13:36:43;;;;;;;;;;;;;;;;;;4981543;28;19921;-73
2023/02/18 13:39:10;;;;;;;;;;;;;;;;;;4998535;28;19917;-72
2023/02/18 13:41:36;;;;;;;;;;;;;;;;;;4996003;28;20011;-74
2023/02/18 13:44:02;;;;;;;;;;;;;;;;;;5001462;28;19913;-73
2023/02/18 13:46:28;;;;;;;;;;;;;;;;;;4983121;28;19956;-73
2023/02/18 13:48:54;;;;;;;;;;;;;;;;;;4998245;28;19913;-73
2023/02/18 13:51:20;;;;;;;;;;;;;;;;;;4995300;28;19973;-73
2023/02/18 13:53:46;;;;;;;;;;;;;;;;;;4996265;28;19971;-74
2023/02/18 13:56:12;;;;;;;;;;;;;;;;;;4982041;28;20349;-73
2023/02/18 13:58:38;;;;;;;;;;;;;;;;;;4978461;28;19922;-73
2023/02/18 14:01:04;;;;;;;;;;;;;;;;;;4996184;28;20318;-73
2023/02/18 14:03:31;;;;;;;;;;;;;;;;;;5000917;28;19917;-74
2023/02/18 14:05:57;;;;;;;;;;;;;;;;;;4995338;28;19960;-72
2023/02/18 14:08:23;;;;;;;;;;;;;;;;;;4996469;28;20031;-74
2023/02/18 14:10:49;;;;;;;;;;;;;;;;;;4996365;28;20710;-72
2023/02/18 14:13:15;;;;;;;;;;;;;;;;;;4995483;28;19918;-72
2023/02/18 14:15:41;;;;;;;;;;;;;;;;;;4977212;28;19921;-73
2023/02/18 14:18:07;;;;;;;;;;;;;;;;;;4997152;28;20367;-75
2023/02/18 14:20:33;;;;;;;;;;;;;;;;;;4994773;28;19944;-76
2023/02/18 14:22:59;;;;;;;;;;;;;;;;;;4997997;28;19920;-73
2023/02/18 14:25:25;;;;;;;;;;;;;;;;;;4990890;28;19991;-73
2023/02/18 14:27:51;;;;;;;;;;;;;;;;;;4982498;28;19913;-72
2023/02/18 14:30:17;;;;;;;;;;;;;;;;;;4993152;28;19913;-72
2023/02/18 14:32:43;;;;;;;;;;;;;;;;;;4982396;28;20526;-73
2023/02/18 14:35:09;;;;;;;;;;;;;;;;;;4975044;28;19955;-72
2023/02/18 14:37:35;;;;;;;;;;;;;;;;;;4998043;28;19970;-73
2023/02/18 14:40:01;;;;;;;;;;;;;;;;;;4977998;28;20580;-73
2023/02/18 14:42:27;;;;;;;;;;;;;;;;;;4993812;28;19936;-73
2023/02/18 14:44:53;;;;;;;;;;;;;;;;;;4996310;28;20288;-73
2023/02/18 14:47:19;;;;;;;;;;;;;;;;;;4993265;28;19920;-74
2023/02/18 14:49:45;;;;;;;;;;;;;;;;;;4996693;28;20446;-74
2023/02/18 14:52:11;;;;;;;;;;;;;;;;;;4974298;28;20373;-74
2023/02/18 14:54:37;;;;;;;;;;;;;;;;;;4977403;28;20248;-74
2023/02/18 14:57:03;;;;;;;;;;;;;;;;;;4990882;28;19913;-72
2023/02/18 14:59:29;;;;;;;;;;;;;;;;;;4995901;28;20083;-72
2023/02/18 15:01:55;;;;;;;;;;;;;;;;;;4997613;28;20564;-72
2023/02/18 15:04:21;;;;;;;;;;;;;;;;;;4973384;28;19913;-73
2023/02/18 15:06:47;;;;;;;;;;;;;;;;;;4993836;28;19920;-73
2023/02/18 15:09:13;;;;;;;;;;;;;;;;;;4976630;28;19916;-71
2023/02/18 15:11:39;;;;;;;;;;;;;;;;;;4996545;28;20315;-73
2023/02/18 15:14:05;;;;;;;;;;;;;;;;;;4993410;28;19924;-72
2023/02/18 15:16:31;;;;;;;;;;;;;;;;;;4997958;28;19939;-72
2023/02/18 15:18:57;;;;;;;;;;;;;;;;;;4997724;28;20673;-72
2023/02/18 15:21:23;;;;;;;;;;;;;;;;;;4988499;28;19916;-73
2023/02/18 15:23:49;;;;;;;;;;;;;;;;;;4995637;28;20431;-72
2023/02/18 15:26:14;;;;;;;;;;;;;;;;;;4991529;28;19912;-71
2023/02/18 15:28:40;;;;;;;;;;;;;;;;;;4978764;28;20345;-73
2023/02/18 15:31:06;;;;;;;;;;;;;;;;;;4975673;28;19920;-73
2023/02/18 15:33:32;;;;;;;;;;;;;;;;;;4991458;28;19918;-73
2023/02/18 15:35:58;;;;;;;;;;;;;;;;;;4977580;28;20385;-72
2023/02/18 15:38:24;;;;;;;;;;;;;;;;;;4973222;28;19917;-71
2023/02/18 15:40:50;;;;;;;;;;;;;;;;;;4997687;28;19921;-71
2023/02/18 15:43:16;;;;;;;;;;;;;;;;;;4995192;28;19927;-71
2023/02/18 15:45:42;;;;;;;;;;;;;;;;;;4997138;28;20591;-72
2023/02/18 15:48:08;;;;;;;;;;;;;;;;;;4990463;28;19913;-72
2023/02/18 15:50:34;;;;;;;;;;;;;;;;;;4993089;28;19971;-72
2023/02/18 15:53:00;;;;;;;;;;;;;;;;;;4993218;28;20157;-72
2023/02/18 15:55:26;;;;;;;;;;;;;;;;;;4992355;28;20484;-72
2023/02/18 15:57:53;;;;;;;;;;;;;;;;;;4995916;28;20105;-71
2023/02/18 16:00:19;;;;;;;;;;;;;;;;;;4988588;28;20398;-71
2023/02/18 16:02:45;;;;;;;;;;;;;;;;;;4994125;28;19913;-72
2023/02/18 16:05:11;;;;;;;;;;;;;;;;;;4970599;28;20028;-71
2023/02/18 16:07:37;;;;;;;;;;;;;;;;;;4995355;28;19913;-71
2023/02/18 16:10:03;;;;;;;;;;;;;;;;;;4990400;28;19913;-72
2023/02/18 16:12:30;;;;;;;;;;;;;;;;;;4988573;28;19917;-72
2023/02/18 16:14:56;;;;;;;;;;;;;;;;;;4996180;28;19963;-72
2023/02/18 16:17:22;;;;;;;;;;;;;;;;;;4992157;28;19987;-72
2023/02/18 16:19:48;;;;;;;;;;;;;;;;;;4976981;28;20645;-72
2023/02/18 16:22:14;;;;;;;;;;;;;;;;;;4993708;28;19920;-71
2023/02/18 16:24:40;;;;;;;;;;;;;;;;;;4991548;28;20338;-72
2023/02/18 16:27:06;;;;;;;;;;;;;;;;;;4988028;28;19924;-72
2023/02/18 16:29:32;;;;;;;;;;;;;;;;;;4999159;28;20423;-72
2023/02/18 16:31:58;;;;;;;;;;;;;;;;;;4976485;28;20619;-71
2023/02/18 16:34:24;;;;;;;;;;;;;;;;;;4975600;28;19913;-71
2023/02/18 16:39:35;;;;;;;;;;;;;;;;;;4990175;28;19955;-72
2023/02/18 16:42:01;;;;;;;;;;;;;;;;;;4993975;28;20388;-72